createdAt,value
2018-05-01T00:00:28.385Z,70.60
2018-05-01T00:02:55.911Z,70.60
2018-05-01T00:05:23.469Z,70.40
2018-05-01T00:07:51.033Z,71.90
2018-05-01T00:10:18.899Z,71.10
2018-05-01T00:12:47.196Z,71.40
2018-05-01T00:15:15.473Z,71.60
2018-05-01T00:17:43.010Z,71.50
2018-05-01T00:20:10.526Z,71.80
2018-05-01T00:22:38.048Z,72.10
2018-05-01T00:25:05.581Z,73.50
2018-05-01T00:27:33.096Z,72.80
2018-05-01T00:30:01.788Z,72.90
2018-05-01T00:32:29.308Z,73.10
2018-05-01T00:34:56.821Z,73.40
2018-05-01T00:37:24.369Z,73.60
2018-05-01T00:39:51.906Z,73.90
2018-05-01T00:42:19.427Z,74.00
2018-05-01T00:44:47.703Z,74.80
2018-05-01T00:47:16.004Z,74.30
2018-05-01T00:49:43.569Z,74.20
2018-05-01T00:52:23.053Z,74.30
2018-05-01T00:54:50.583Z,74.20
2018-05-01T00:57:18.096Z,74.30
2018-05-01T00:59:46.395Z,73.00
2018-05-01T01:02:13.921Z,73.00
2018-05-01T01:04:41.446Z,72.80
2018-05-01T01:07:08.984Z,72.50
2018-05-01T01:09:36.496Z,72.50
2018-05-01T01:12:04.032Z,72.10
2018-05-01T01:14:31.590Z,71.90
2018-05-01T01:16:59.125Z,71.80
2018-05-01T01:19:26.640Z,71.50
2018-05-01T01:21:54.927Z,71.10
2018-05-01T01:24:22.456Z,71.10
2018-05-01T01:26:49.988Z,71.90
2018-05-01T01:29:17.529Z,72.00
2018-05-01T01:31:45.064Z,71.60
2018-05-01T01:34:12.577Z,71.50
2018-05-01T01:36:39.610Z,71.10
2018-05-01T01:39:06.656Z,71.10
2018-05-01T01:41:33.695Z,70.20
2018-05-01T01:44:00.725Z,70.40
2018-05-01T01:46:27.786Z,70.00
2018-05-01T01:48:54.831Z,70.40
2018-05-01T01:51:21.880Z,70.00
2018-05-01T01:53:48.924Z,70.00
2018-05-01T01:56:16.005Z,70.20
2018-05-01T01:58:43.060Z,70.60
2018-05-01T02:01:10.082Z,70.50
2018-05-01T02:03:37.131Z,70.60
2018-05-01T02:06:04.161Z,70.80
2018-05-01T02:08:31.199Z,70.50
2018-05-01T02:10:59.020Z,70.30
2018-05-01T02:13:26.814Z,71.10
2018-05-01T02:15:53.840Z,71.10
2018-05-01T02:18:20.886Z,70.70
2018-05-01T02:20:48.672Z,71.10
2018-05-01T02:23:15.710Z,71.00
2018-05-01T02:25:42.736Z,70.80
2018-05-01T02:28:10.560Z,70.60
2018-05-01T02:30:37.609Z,70.60
2018-05-01T02:33:04.661Z,70.60
2018-05-01T02:35:31.695Z,70.70
2018-05-01T02:37:58.775Z,70.20
2018-05-01T02:40:25.813Z,69.50
2018-05-01T02:42:52.877Z,70.50
2018-05-01T02:45:20.014Z,69.90
2018-05-01T02:47:47.041Z,70.00
2018-05-01T02:50:14.081Z,69.60
2018-05-01T02:52:41.113Z,68.60
2018-05-01T02:55:08.146Z,68.80
2018-05-01T02:57:35.637Z,67.70
2018-05-01T03:00:02.693Z,67.90
2018-05-01T03:02:29.732Z,67.90
2018-05-01T03:04:56.773Z,67.70
2018-05-01T03:07:23.828Z,67.80
2018-05-01T03:09:50.918Z,67.80
2018-05-01T03:12:17.905Z,66.80
2018-05-01T03:14:45.090Z,66.90
2018-05-01T03:17:12.126Z,67.00
2018-05-01T03:19:39.142Z,66.50
2018-05-01T03:22:06.177Z,66.70
2018-05-01T03:24:33.209Z,66.30
2018-05-01T03:27:00.234Z,66.80
2018-05-01T03:29:28.035Z,66.80
2018-05-01T03:31:55.069Z,66.80
2018-05-01T03:34:22.165Z,67.50
2018-05-01T03:36:50.069Z,67.90
2018-05-01T03:39:17.141Z,67.70
2018-05-01T03:41:44.916Z,68.00
2018-05-01T03:44:12.725Z,67.90
2018-05-01T03:46:39.961Z,67.90
2018-05-01T03:49:07.830Z,68.70
2018-05-01T03:51:34.856Z,69.20
2018-05-01T03:54:01.894Z,68.40
2018-05-01T03:56:28.949Z,68.40
2018-05-01T03:58:55.972Z,68.90
2018-05-01T04:01:23.009Z,69.10
2018-05-01T04:03:50.056Z,69.10
2018-05-01T04:06:17.096Z,69.10
2018-05-01T04:08:44.125Z,70.00
2018-05-01T04:11:11.923Z,70.00
2018-05-01T04:13:38.951Z,70.00
2018-05-01T04:16:05.987Z,70.10
2018-05-01T04:18:33.784Z,70.10
2018-05-01T04:21:01.619Z,70.00
2018-05-01T04:23:29.423Z,70.20
2018-05-01T04:25:56.465Z,70.20
2018-05-01T04:28:23.503Z,70.20
2018-05-01T04:30:50.543Z,69.90
2018-05-01T04:33:17.571Z,69.90
2018-05-01T04:35:45.372Z,70.10
2018-05-01T04:38:12.389Z,70.10
2018-05-01T04:40:39.431Z,70.00
2018-05-01T04:43:06.480Z,70.20
2018-05-01T04:45:34.267Z,70.10
2018-05-01T04:48:01.296Z,70.00
2018-05-01T04:50:28.340Z,70.00
2018-05-01T04:52:55.389Z,70.20
2018-05-01T04:55:22.426Z,70.40
2018-05-01T04:57:50.227Z,70.00
2018-05-01T05:00:17.255Z,70.00
2018-05-01T05:02:44.308Z,70.10
2018-05-01T05:05:11.948Z,70.10
2018-05-01T05:07:38.996Z,70.50
2018-05-01T05:10:06.039Z,70.00
2018-05-01T05:12:33.097Z,70.00
2018-05-01T05:15:00.124Z,70.10
2018-05-01T05:17:27.931Z,70.00
2018-05-01T05:19:54.955Z,70.00
2018-05-01T05:22:21.979Z,70.00
2018-05-01T05:24:49.791Z,70.20
2018-05-01T05:27:16.835Z,70.10
2018-05-01T05:29:43.875Z,69.80
2018-05-01T05:32:10.904Z,69.90
2018-05-01T05:34:37.933Z,70.50
2018-05-01T05:37:05.744Z,69.60
2018-05-01T05:39:32.773Z,69.60
2018-05-01T05:41:59.833Z,70.20
2018-05-01T05:44:26.881Z,70.00
2018-05-01T05:46:53.922Z,69.70
2018-05-01T05:49:20.976Z,69.70
2018-05-01T05:51:48.008Z,70.00
2018-05-01T05:54:15.054Z,69.60
2018-05-01T05:56:42.099Z,69.50
2018-05-01T05:59:09.173Z,69.20
2018-05-01T06:01:36.217Z,69.50
2018-05-01T06:04:03.280Z,69.20
2018-05-01T06:06:31.244Z,69.60
2018-05-01T06:08:58.416Z,69.80
2018-05-01T06:11:26.573Z,69.90
2018-05-01T06:13:53.612Z,69.70
2018-05-01T06:16:20.649Z,70.10
2018-05-01T06:18:47.703Z,69.60
2018-05-01T06:21:14.739Z,70.10
2018-05-01T06:23:41.788Z,70.40
2018-05-01T06:26:08.835Z,70.60
2018-05-01T06:28:35.901Z,69.80
2018-05-01T06:31:03.036Z,70.00
2018-05-01T06:33:29.983Z,69.50
2018-05-01T06:35:57.036Z,69.30
2018-05-01T06:38:24.071Z,69.90
2018-05-01T06:40:51.103Z,69.00
2018-05-01T06:43:18.147Z,69.90
2018-05-01T06:45:45.181Z,69.20
2018-05-01T06:48:12.246Z,69.10
2018-05-01T06:50:39.318Z,69.80
2018-05-01T06:53:06.320Z,69.70
2018-05-01T06:55:33.343Z,70.40
2018-05-01T06:58:01.158Z,68.30
2018-05-01T07:00:28.221Z,68.30
2018-05-01T07:02:55.270Z,68.50
2018-05-01T07:05:22.287Z,68.30
2018-05-01T07:07:49.357Z,67.50
2018-05-01T07:10:16.435Z,68.10
2018-05-01T07:12:43.428Z,65.00
2018-05-01T07:15:10.478Z,65.90
2018-05-01T07:17:38.261Z,63.10
2018-05-01T07:20:05.306Z,63.10
2018-05-01T07:22:32.337Z,60.40
2018-05-01T07:24:59.410Z,59.60
2018-05-01T07:27:26.485Z,60.10
2018-05-01T07:29:53.496Z,58.10
2018-05-01T07:32:20.529Z,56.20
2018-05-01T07:34:48.384Z,55.70
2018-05-01T07:37:15.419Z,57.50
2018-05-01T07:39:42.467Z,57.60
2018-05-01T07:42:09.514Z,57.50
2018-05-01T07:44:36.574Z,57.10
2018-05-01T07:47:03.612Z,54.90
2018-05-01T07:49:30.652Z,55.70
2018-05-01T07:51:57.699Z,56.60
2018-05-01T07:54:24.763Z,57.40
2018-05-01T07:56:51.816Z,56.70
2018-05-01T07:59:18.840Z,56.20
2018-05-01T08:01:45.889Z,55.50
2018-05-01T08:04:13.693Z,55.20
2018-05-01T08:06:40.749Z,55.20
2018-05-01T08:09:07.766Z,54.60
2018-05-01T08:11:34.807Z,53.20
2018-05-01T08:14:01.830Z,52.10
2018-05-01T08:16:28.896Z,49.10
2018-05-01T08:18:55.924Z,47.90
2018-05-01T08:21:22.994Z,47.20
2018-05-01T08:23:50.013Z,46.30
2018-05-01T08:26:17.082Z,46.00
2018-05-01T08:28:44.132Z,46.40
2018-05-01T08:31:11.188Z,46.00
2018-05-01T08:33:38.245Z,46.70
2018-05-01T08:36:05.296Z,47.60
2018-05-01T08:38:32.345Z,45.90
2018-05-01T08:40:59.388Z,44.70
2018-05-01T08:43:26.443Z,46.40
2018-05-01T08:45:53.493Z,46.70
2018-05-01T08:48:20.552Z,46.90
2018-05-01T08:50:47.651Z,46.80
2018-05-01T08:53:15.458Z,47.60
2018-05-01T08:55:42.510Z,47.60
2018-05-01T08:58:09.560Z,49.10
2018-05-01T09:00:37.367Z,45.10
2018-05-01T09:03:04.429Z,45.10
2018-05-01T09:05:31.474Z,45.80
2018-05-01T09:07:58.526Z,45.80
2018-05-01T09:10:25.562Z,44.50
2018-05-01T09:12:52.612Z,43.50
2018-05-01T09:15:19.648Z,43.10
2018-05-01T09:17:46.833Z,42.70
2018-05-01T09:20:13.720Z,43.20
2018-05-01T09:22:40.760Z,44.00
2018-05-01T09:25:07.797Z,43.90
2018-05-01T09:27:35.606Z,45.80
2018-05-01T09:30:03.405Z,46.10
2018-05-01T09:32:30.466Z,46.10
2018-05-01T09:34:58.277Z,45.80
2018-05-01T09:37:25.310Z,45.80
2018-05-01T09:39:52.525Z,46.40
2018-05-01T09:42:19.553Z,46.00
2018-05-01T09:44:46.609Z,46.10
2018-05-01T09:47:13.636Z,44.50
2018-05-01T09:49:40.674Z,45.00
2018-05-01T09:52:07.712Z,44.80
2018-05-01T09:54:35.245Z,44.80
2018-05-01T09:57:03.600Z,45.70
2018-05-01T09:59:31.919Z,46.30
2018-05-01T10:01:59.436Z,46.20
2018-05-01T10:04:26.977Z,46.40
2018-05-01T10:06:54.511Z,46.90
2018-05-01T10:09:22.057Z,47.20
2018-05-01T10:11:49.588Z,46.30
2018-05-01T10:14:17.120Z,45.30
2018-05-01T10:16:45.456Z,45.40
2018-05-01T10:19:12.985Z,44.90
2018-05-01T10:21:40.520Z,45.10
2018-05-01T10:24:08.832Z,43.10
2018-05-01T10:26:36.360Z,43.10
2018-05-01T10:29:03.902Z,42.90
2018-05-01T10:31:31.448Z,40.40
2018-05-01T10:33:58.976Z,39.20
2018-05-01T10:36:26.487Z,37.60
2018-05-01T10:38:54.031Z,36.70
2018-05-01T10:41:21.557Z,37.60
2018-05-01T10:43:49.103Z,37.90
2018-05-01T10:46:16.653Z,38.30
2018-05-01T10:48:44.180Z,37.20
2018-05-01T10:51:12.482Z,35.40
2018-05-01T10:53:40.026Z,35.40
2018-05-01T10:56:08.336Z,37.60
2018-05-01T10:58:35.851Z,37.60
2018-05-01T11:01:04.159Z,41.50
2018-05-01T11:03:31.705Z,41.50
2018-05-01T11:05:59.248Z,42.60
2018-05-01T11:08:27.598Z,43.00
2018-05-01T11:10:55.073Z,43.00
2018-05-01T11:13:23.366Z,43.40
2018-05-01T11:15:50.911Z,43.40
2018-05-01T11:18:19.195Z,41.10
2018-05-01T11:20:46.741Z,41.10
2018-05-01T11:23:15.037Z,40.30
2018-05-01T11:25:42.596Z,40.20
2018-05-01T11:28:10.116Z,40.50
2018-05-01T11:30:37.676Z,39.10
2018-05-01T11:33:05.192Z,38.70
2018-05-01T11:35:32.744Z,40.10
2018-05-01T11:38:00.280Z,38.60
2018-05-01T11:40:27.811Z,35.80
2018-05-01T11:42:55.343Z,37.00
2018-05-01T11:45:22.859Z,38.80
2018-05-01T11:47:50.422Z,38.30
2018-05-01T11:50:17.958Z,38.00
2018-05-01T11:52:45.486Z,37.10
2018-05-01T11:55:13.027Z,38.80
2018-05-01T11:57:40.565Z,35.90
2018-05-01T12:00:08.096Z,34.50
2018-05-01T12:02:36.481Z,35.50
2018-05-01T12:05:03.929Z,35.50
2018-05-01T12:07:32.237Z,35.50
2018-05-01T12:09:59.784Z,35.50
2018-05-01T12:12:27.356Z,37.30
2018-05-01T12:14:54.973Z,35.30
2018-05-01T12:17:22.495Z,35.30
2018-05-01T12:19:50.038Z,35.90
2018-05-01T12:22:17.559Z,35.70
2018-05-01T12:24:45.853Z,35.50
2018-05-01T12:27:13.916Z,35.50
2018-05-01T12:29:41.450Z,34.40
2018-05-01T12:32:09.031Z,34.60
2018-05-01T12:34:36.521Z,36.10
2018-05-01T12:37:04.102Z,36.70
2018-05-01T12:39:32.339Z,35.80
2018-05-01T12:41:59.861Z,35.70
2018-05-01T12:44:28.244Z,35.20
2018-05-01T12:46:56.550Z,35.50
2018-05-01T12:49:24.085Z,35.50
2018-05-01T12:51:51.603Z,38.40
2018-05-01T12:54:19.189Z,36.60
2018-05-01T12:56:46.713Z,36.10
2018-05-01T12:59:14.290Z,36.60
2018-05-01T13:01:41.780Z,35.90
2018-05-01T13:04:10.072Z,35.10
2018-05-01T13:06:37.595Z,35.10
2018-05-01T13:09:06.032Z,35.90
2018-05-01T13:11:33.581Z,35.10
2018-05-01T13:14:01.123Z,34.50
2018-05-01T13:16:28.663Z,35.80
2018-05-01T13:18:57.076Z,37.00
2018-05-01T13:21:24.581Z,36.90
2018-05-01T13:23:52.104Z,36.00
2018-05-01T13:26:19.636Z,36.60
2018-05-01T13:28:47.182Z,35.60
2018-05-01T13:31:15.512Z,36.50
2018-05-01T13:33:43.041Z,36.50
2018-05-01T13:36:10.579Z,38.00
2018-05-01T13:38:38.109Z,35.70
2018-05-01T13:41:05.672Z,36.20
2018-05-01T13:43:33.970Z,36.10
2018-05-01T13:46:01.539Z,35.50
2018-05-01T13:48:29.055Z,35.40
2018-05-01T13:50:56.602Z,35.70
2018-05-01T13:53:24.125Z,36.00
2018-05-01T13:55:51.659Z,35.70
2018-05-01T13:58:19.200Z,37.30
2018-05-01T14:00:47.514Z,37.60
2018-05-01T14:03:15.060Z,37.60
2018-05-01T14:05:42.598Z,37.60
2018-05-01T14:08:10.897Z,37.90
2018-05-01T14:10:38.428Z,37.90
2018-05-01T14:13:06.725Z,36.20
2018-05-01T14:15:34.273Z,36.10
2018-05-01T14:18:02.568Z,38.50
2018-05-01T14:20:30.106Z,38.40
2018-05-01T14:22:58.458Z,37.50
2018-05-01T14:25:26.128Z,37.40
2018-05-01T14:27:53.533Z,37.30
2018-05-01T14:30:21.086Z,37.30
2018-05-01T14:32:48.616Z,39.00
2018-05-01T14:35:16.922Z,39.10
2018-05-01T14:37:44.458Z,39.10
2018-05-01T14:40:11.997Z,39.10
2018-05-01T14:42:40.323Z,38.60
2018-05-01T14:45:07.852Z,38.20
2018-05-01T14:47:35.375Z,38.70
2018-05-01T14:50:02.924Z,38.50
2018-05-01T14:52:30.496Z,37.80
2018-05-01T14:54:58.033Z,37.30
2018-05-01T14:57:25.582Z,37.10
2018-05-01T14:59:53.119Z,35.90
2018-05-01T15:02:20.649Z,34.90
2018-05-01T15:04:48.955Z,35.00
2018-05-01T15:07:16.494Z,35.00
2018-05-01T15:09:44.020Z,35.90
2018-05-01T15:12:11.535Z,36.70
2018-05-01T15:14:39.060Z,35.90
2018-05-01T15:17:06.590Z,35.60
2018-05-01T15:19:34.156Z,36.80
2018-05-01T15:22:01.711Z,35.20
2018-05-01T15:24:29.242Z,35.40
2018-05-01T15:26:56.795Z,35.60
2018-05-01T15:29:24.346Z,36.10
2018-05-01T15:31:51.876Z,35.00
2018-05-01T15:34:20.185Z,36.30
2018-05-01T15:36:47.709Z,36.30
2018-05-01T15:39:16.062Z,35.60
2018-05-01T15:41:43.612Z,35.60
2018-05-01T15:44:11.141Z,35.40
2018-05-01T15:46:38.682Z,36.90
2018-05-01T15:49:06.221Z,34.00
2018-05-01T15:51:33.788Z,34.10
2018-05-01T15:54:02.078Z,35.50
2018-05-01T15:56:29.615Z,35.50
2018-05-01T15:58:57.165Z,35.80
2018-05-01T16:01:24.691Z,35.90
2018-05-01T16:03:52.216Z,35.10
2018-05-01T16:06:19.748Z,35.70
2018-05-01T16:08:47.278Z,34.70
2018-05-01T16:11:14.840Z,35.70
2018-05-01T16:13:43.105Z,35.60
2018-05-01T16:16:10.636Z,36.10
2018-05-01T16:18:38.938Z,36.10
2018-05-01T16:21:06.485Z,36.10
2018-05-01T16:23:34.004Z,35.10
2018-05-01T16:26:01.548Z,35.00
2018-05-01T16:28:29.086Z,35.20
2018-05-01T16:30:56.630Z,35.30
2018-05-01T16:33:24.166Z,36.10
2018-05-01T16:35:52.688Z,35.70
2018-05-01T16:38:20.189Z,36.40
2018-05-01T16:40:48.246Z,36.90
2018-05-01T16:43:16.610Z,37.40
2018-05-01T16:45:44.243Z,37.40
2018-05-01T16:48:11.676Z,37.50
2018-05-01T16:50:39.209Z,37.60
2018-05-01T16:53:06.736Z,38.90
2018-05-01T16:55:35.049Z,36.80
2018-05-01T16:58:02.587Z,36.80
2018-05-01T17:00:30.133Z,37.00
2018-05-01T17:02:58.422Z,36.60
2018-05-01T17:05:25.968Z,36.60
2018-05-01T17:07:54.255Z,36.70
2018-05-01T17:10:21.800Z,36.70
2018-05-01T17:12:50.142Z,36.30
2018-05-01T17:15:17.644Z,36.30
2018-05-01T17:17:45.173Z,36.10
2018-05-01T17:20:12.706Z,37.00
2018-05-01T17:22:40.241Z,38.50
2018-05-01T17:25:07.804Z,37.80
2018-05-01T17:27:35.359Z,37.80
2018-05-01T17:30:02.886Z,39.60
2018-05-01T17:32:31.209Z,39.10
2018-05-01T17:34:58.755Z,39.10
2018-05-01T17:37:26.289Z,40.50
2018-05-01T17:39:53.807Z,41.70
2018-05-01T17:42:21.336Z,41.90
2018-05-01T17:44:48.871Z,42.50
2018-05-01T17:47:16.400Z,43.50
2018-05-01T17:49:44.693Z,42.90
2018-05-01T17:52:12.225Z,42.90
2018-05-01T17:54:39.767Z,43.00
2018-05-01T17:57:07.296Z,42.80
2018-05-01T17:59:34.824Z,42.70
2018-05-01T18:02:02.366Z,41.70
2018-05-01T18:04:30.671Z,42.90
2018-05-01T18:06:58.209Z,42.40
2018-05-01T18:09:26.520Z,43.10
2018-05-01T18:11:54.064Z,43.10
2018-05-01T18:14:21.601Z,42.70
2018-05-01T18:16:49.910Z,43.20
2018-05-01T18:19:17.445Z,43.20
2018-05-01T18:21:44.990Z,43.20
2018-05-01T18:24:13.285Z,44.20
2018-05-01T18:26:40.833Z,44.20
2018-05-01T18:29:09.108Z,44.40
2018-05-01T18:31:36.634Z,44.40
2018-05-01T18:34:04.162Z,45.20
2018-05-01T18:36:31.691Z,45.60
2018-05-01T18:38:59.986Z,46.70
2018-05-01T18:41:27.519Z,46.60
2018-05-01T18:43:55.031Z,47.50
2018-05-01T18:46:22.597Z,48.10
2018-05-01T18:48:51.116Z,48.10
2018-05-01T18:51:19.064Z,49.10
2018-05-01T18:53:47.368Z,49.70
2018-05-01T18:56:14.913Z,49.30
2018-05-01T18:58:43.209Z,50.00
2018-05-01T19:01:10.754Z,50.00
2018-05-01T19:03:38.285Z,51.20
2018-05-01T19:06:05.813Z,52.70
2018-05-01T19:08:33.333Z,52.30
2018-05-01T19:11:00.861Z,52.90
2018-05-01T19:13:28.461Z,53.40
2018-05-01T19:15:55.981Z,52.70
2018-05-01T19:18:23.499Z,52.50
2018-05-01T19:20:51.029Z,53.30
2018-05-01T19:23:18.554Z,54.00
2018-05-01T19:25:46.072Z,54.40
2018-05-01T19:28:13.619Z,55.10
2018-05-01T19:30:41.159Z,55.00
2018-05-01T19:33:08.743Z,55.40
2018-05-01T19:35:36.267Z,56.30
2018-05-01T19:38:03.813Z,57.40
2018-05-01T19:40:32.114Z,57.70
2018-05-01T19:42:59.636Z,57.70
2018-05-01T19:45:27.174Z,58.70
2018-05-01T19:47:54.708Z,59.30
2018-05-01T19:50:22.242Z,59.10
2018-05-01T19:52:49.827Z,59.80
2018-05-01T19:55:17.357Z,60.00
2018-05-01T19:57:44.898Z,60.60
2018-05-01T20:00:13.184Z,61.60
2018-05-01T20:02:41.489Z,62.40
2018-05-01T20:05:09.685Z,62.40
2018-05-01T20:07:37.223Z,64.20
2018-05-01T20:10:04.754Z,64.80
2018-05-01T20:12:33.057Z,64.00
2018-05-01T20:15:00.617Z,64.00
2018-05-01T20:17:28.896Z,65.50
2018-05-01T20:19:56.449Z,65.50
2018-05-01T20:22:24.731Z,64.90
2018-05-01T20:24:52.241Z,64.90
2018-05-01T20:27:20.568Z,67.00
2018-05-01T20:29:48.133Z,67.60
2018-05-01T20:32:15.671Z,68.00
2018-05-01T20:34:43.180Z,67.10
2018-05-01T20:37:10.708Z,67.30
2018-05-01T20:39:38.223Z,67.90
2018-05-01T20:42:06.537Z,68.80
2018-05-01T20:44:34.053Z,68.80
2018-05-01T20:47:02.973Z,69.00
2018-05-01T20:49:30.497Z,69.00
2018-05-01T20:51:58.037Z,70.40
2018-05-01T20:54:25.556Z,70.50
2018-05-01T20:56:53.084Z,70.00
2018-05-01T20:59:20.605Z,70.00
2018-05-01T21:01:48.232Z,70.80
2018-05-01T21:04:15.676Z,72.30
2018-05-01T21:06:43.200Z,71.50
2018-05-01T21:09:11.486Z,71.60
2018-05-01T21:11:39.793Z,72.70
2018-05-01T21:14:07.321Z,73.20
2018-05-01T21:16:35.631Z,72.70
2018-05-01T21:19:03.190Z,72.70
2018-05-01T21:21:30.731Z,73.10
2018-05-01T21:23:58.241Z,73.40
2018-05-01T21:26:25.804Z,73.30
2018-05-01T21:28:53.360Z,73.40
2018-05-01T21:31:20.884Z,74.00
2018-05-01T21:33:48.439Z,74.80
2018-05-01T21:36:16.006Z,74.70
2018-05-01T21:38:43.513Z,75.30
2018-05-01T21:41:11.816Z,76.40
2018-05-01T21:43:39.321Z,76.40
2018-05-01T21:46:06.857Z,76.20
2018-05-01T21:48:34.386Z,76.10
2018-05-01T21:51:01.992Z,76.30
2018-05-01T21:53:29.520Z,76.50
2018-05-01T21:55:57.060Z,77.00
2018-05-01T21:58:24.588Z,78.00
2018-05-01T22:00:52.125Z,77.50
2018-05-01T22:03:19.639Z,77.40
2018-05-01T22:05:47.219Z,77.20
2018-05-01T22:08:14.813Z,77.50
2018-05-01T22:10:42.355Z,78.30
2018-05-01T22:13:09.932Z,78.30
2018-05-01T22:15:37.516Z,79.00
2018-05-01T22:18:05.006Z,80.00
2018-05-01T22:20:32.530Z,79.40
2018-05-01T22:23:00.866Z,79.10
2018-05-01T22:25:28.400Z,79.10
2018-05-01T22:27:55.940Z,79.00
2018-05-01T22:30:23.462Z,79.30
2018-05-01T22:32:50.989Z,79.80
2018-05-01T22:35:18.506Z,80.90
2018-05-01T22:37:46.042Z,81.90
2018-05-01T22:40:13.588Z,80.70
2018-05-01T22:42:41.107Z,80.90
2018-05-01T22:45:08.639Z,80.80
2018-05-01T22:47:36.172Z,80.20
2018-05-01T22:50:03.701Z,80.10
2018-05-01T22:52:31.231Z,79.90
2018-05-01T22:54:58.757Z,80.00
2018-05-01T22:57:27.049Z,81.40
2018-05-01T22:59:54.588Z,81.30
2018-05-01T23:02:22.881Z,79.50
2018-05-01T23:04:50.398Z,79.50
2018-05-01T23:07:17.951Z,79.40
2018-05-01T23:09:45.479Z,80.10
2018-05-01T23:12:13.000Z,79.70
2018-05-01T23:14:41.310Z,80.60
2018-05-01T23:17:08.847Z,80.60
2018-05-01T23:19:36.364Z,80.60
2018-05-01T23:22:03.913Z,80.20
2018-05-01T23:24:31.412Z,80.90
2018-05-01T23:26:59.708Z,80.80
2018-05-01T23:29:27.239Z,80.70
2018-05-01T23:31:55.528Z,81.30
2018-05-01T23:34:23.049Z,81.20
2018-05-01T23:36:50.581Z,82.10
2018-05-01T23:39:18.101Z,81.50
2018-05-01T23:41:46.403Z,81.60
2018-05-01T23:44:13.924Z,81.60
2018-05-01T23:46:42.258Z,82.40
2018-05-01T23:49:09.780Z,82.30
2018-05-01T23:51:37.308Z,82.80
2018-05-01T23:54:04.829Z,82.60
2018-05-01T23:56:32.369Z,82.80
2018-05-01T23:58:59.875Z,82.80
